Página principal
METAR-TAF:

METAR-TAF

Aeroportos :

Sal, Cabo Verde

Aeroporto Internacional Amílcar Cabral

latitude: 16-44N, longitude: 022-57W, altura: 54 m

Observação actual do tempo

O boletim foi feito há 28 minutos, às 23:00 UTC
Vento 8 kt de nordeste
Temperatura 24°C
Humidade 69%
Pressão 1013 hPa
Visibilidade 10 km ou mais
Nuvens fragmentadasa uma altura de 1400 ft
Nuvens fragmentadasa uma altura de 20000 ft

METAR: GVAC 152300Z 05008KT 9999 BKN014 BKN200 24/18 Q1013 NOSIG

Hora: 22:28 (23:28 UTC)

Previsão

O boletim foi feito há 6 horas e 28 minutos, às 17:00 UTC
Previsão válida de 15 às 18 UTC a 16 às 24 UTC
Vento 14 kt de nordeste
Visibilidade 10 km ou mais
Nuvens fragmentadasa uma altura de 1400 ft

TAF: GVAC 151700Z 1518/1624 04014KT 9999 BKN014

Observações e previsões do tempo de mais de 4000 aeroportos (mensagens METAR e TAF).

As estações disponíveis são os pontos amarelos e vermelhos sobre o mapa.

Mova o rato sobre o mapa para ver o nome da estação.

Depois clique no ponto para visualizar as observações e previsões meteorológicas.

Para alterar o mapa : clique nos botões verdes com uma cruz preta para aumentar o zoom; no botão verde com uma pitada de zoom; ou nas setas verdes para mapas adjacentes.


METAR-TAF: